AAL321 SEQM-TNCC
Flight info
| Callsign | AAL321 |
|---|---|
| Flight time | 2h 14m |
| Altitude | 36000 |
| Route | ARNOK3A ARNOK UP533 BOKAN DCT GIR/N0444F370 DCT SOA W44 ZIP UW9 PIE UW1 ENPUT UW567 STB UG431 ALCOT G431 EMAPA EMAPA1B |
| Aircraft | B75F/M-SDE1E2E3FGHIJ2J3J4J5M1RWXYZ/L |
Departure
| Time | 2026-04-28 23:09 |
|---|---|
| Airport | Mariscal Sucre International Airport (SEQM) |
Arrival
| Time | 2026-04-29 01:23 |
|---|---|
| Airport | Hato International Airport (TNCC) |
| Time | Latitude | Longitude | Altitude | Speed | Heading |
|---|---|---|---|---|---|
| 2026-04-28 22:52 | -0.12550 | -78.35912 | 7849 ft | 0 kts | 267° |
| 2026-04-28 22:53 | -0.12549 | -78.35912 | 7849 ft | 0 kts | 267° |
| 2026-04-28 22:54 | -0.12550 | -78.35912 | 7849 ft | 0 kts | 267° |
| 2026-04-28 22:54 | -0.12549 | -78.35912 | 7849 ft | 0 kts | 267° |
| 2026-04-28 22:56 | -0.12549 | -78.35911 | 7849 ft | 0 kts | 267° |
| 2026-04-28 22:59 | -0.12549 | -78.35910 | 7849 ft | 2 kts | 267° |
| 2026-04-28 22:59 | -0.12548 | -78.35894 | 7849 ft | 2 kts | 262° |
| 2026-04-28 23:00 | -0.12544 | -78.35878 | 7849 ft | 2 kts | 254° |
| 2026-04-28 23:00 | -0.12537 | -78.35863 | 7849 ft | 2 kts | 243° |
| 2026-04-28 23:00 | -0.12527 | -78.35850 | 7849 ft | 2 kts | 225° |
| 2026-04-28 23:00 | -0.12513 | -78.35842 | 7849 ft | 2 kts | 206° |
| 2026-04-28 23:01 | -0.12497 | -78.35838 | 7849 ft | 2 kts | 189° |
| 2026-04-28 23:01 | -0.12486 | -78.35837 | 7849 ft | 1 kts | 182° |
| 2026-04-28 23:01 | -0.12493 | -78.35837 | 7849 ft | 7 kts | 181° |
| 2026-04-28 23:01 | -0.12503 | -78.35838 | 7849 ft | 0 kts | 181° |
| 2026-04-28 23:03 | -0.12506 | -78.35838 | 7849 ft | 3 kts | 181° |
| 2026-04-28 23:04 | -0.12553 | -78.35836 | 7831 ft | 11 kts | 178° |
| 2026-04-28 23:04 | -0.12595 | -78.35834 | 7849 ft | 6 kts | 176° |
| 2026-04-28 23:04 | -0.12675 | -78.35815 | 7849 ft | 12 kts | 124° |
| 2026-04-28 23:05 | -0.12692 | -78.35732 | 7850 ft | 14 kts | 89° |
| 2026-04-28 23:05 | -0.12708 | -78.35620 | 7852 ft | 15 kts | 139° |
| 2026-04-28 23:05 | -0.12810 | -78.35593 | 7853 ft | 18 kts | 176° |
| 2026-04-28 23:05 | -0.12963 | -78.35585 | 7858 ft | 26 kts | 178° |
| 2026-04-28 23:06 | -0.13163 | -78.35580 | 7869 ft | 31 kts | 177° |
| 2026-04-28 23:06 | -0.13391 | -78.35570 | 7879 ft | 30 kts | 180° |
| 2026-04-28 23:06 | -0.13593 | -78.35563 | 7892 ft | 31 kts | 176° |
| 2026-04-28 23:06 | -0.13826 | -78.35553 | 7903 ft | 37 kts | 179° |
| 2026-04-28 23:07 | -0.14077 | -78.35544 | 7919 ft | 31 kts | 177° |
| 2026-04-28 23:07 | -0.14262 | -78.35472 | 7925 ft | 27 kts | 103° |
| 2026-04-28 23:07 | -0.14209 | -78.35372 | 7923 ft | 10 kts | 6° |
| 2026-04-28 23:07 | -0.14169 | -78.35376 | 7918 ft | 0 kts | 356° |
| 2026-04-28 23:08 | -0.14129 | -78.35378 | 7914 ft | 28 kts | 356° |
| 2026-04-28 23:08 | -0.13662 | -78.35389 | 7901 ft | 104 kts | 354° |
| 2026-04-28 23:08 | -0.12705 | -78.35436 | 7866 ft | 170 kts | 358° |
| 2026-04-28 23:08 | -0.11345 | -78.35495 | 7832 ft | 223 kts | 357° |
| 2026-04-28 23:09 | -0.09810 | -78.35675 | 8956 ft | 214 kts | 350° |
| 2026-04-28 23:09 | -0.08255 | -78.36017 | 9506 ft | 244 kts | 347° |
| 2026-04-28 23:09 | -0.06540 | -78.36437 | 10044 ft | 262 kts | 347° |
| 2026-04-28 23:09 | -0.04805 | -78.36856 | 10720 ft | 257 kts | 348° |
| 2026-04-28 23:10 | -0.03043 | -78.37288 | 11127 ft | 269 kts | 346° |
| 2026-04-28 23:10 | -0.01159 | -78.37900 | 11297 ft | 292 kts | 340° |
| 2026-04-28 23:10 | 0.00748 | -78.38610 | 11728 ft | 301 kts | 340° |
| 2026-04-28 23:10 | 0.02732 | -78.39329 | 12378 ft | 304 kts | 342° |
| 2026-04-28 23:11 | 0.04756 | -78.40030 | 12892 ft | 311 kts | 343° |
| 2026-04-28 23:11 | 0.06840 | -78.40756 | 13587 ft | 314 kts | 342° |
| 2026-04-28 23:11 | 0.08884 | -78.41480 | 14163 ft | 318 kts | 342° |
| 2026-04-28 23:11 | 0.10980 | -78.42220 | 14749 ft | 320 kts | 345° |
| 2026-04-28 23:12 | 0.13176 | -78.42460 | 15292 ft | 318 kts | 9° |
| 2026-04-28 23:12 | 0.15263 | -78.41791 | 15811 ft | 318 kts | 30° |
| 2026-04-28 23:12 | 0.17155 | -78.40641 | 16378 ft | 319 kts | 36° |
| 2026-04-28 23:12 | 0.18948 | -78.39391 | 16779 ft | 310 kts | 37° |
| 2026-04-28 23:13 | 0.20707 | -78.38097 | 17022 ft | 320 kts | 39° |
| 2026-04-28 23:13 | 0.22469 | -78.36689 | 17124 ft | 325 kts | 43° |
| 2026-04-28 23:13 | 0.24104 | -78.35150 | 17176 ft | 322 kts | 46° |
| 2026-04-28 23:13 | 0.25725 | -78.33595 | 17192 ft | 324 kts | 44° |
| 2026-04-28 23:14 | 0.27384 | -78.32057 | 17585 ft | 324 kts | 44° |
| 2026-04-28 23:14 | 0.29048 | -78.30520 | 18087 ft | 329 kts | 44° |
| 2026-04-28 23:14 | 0.30730 | -78.28954 | 18540 ft | 331 kts | 44° |
| 2026-04-28 23:14 | 0.32418 | -78.27374 | 18961 ft | 334 kts | 45° |
| 2026-04-28 23:15 | 0.34132 | -78.25779 | 19357 ft | 337 kts | 44° |
| 2026-04-28 23:15 | 0.35871 | -78.24165 | 19532 ft | 349 kts | 44° |
| 2026-04-28 23:15 | 0.37676 | -78.22478 | 19548 ft | 363 kts | 44° |
| 2026-04-28 23:15 | 0.39562 | -78.20736 | 19629 ft | 374 kts | 44° |
| 2026-04-28 23:16 | 0.41455 | -78.18971 | 19842 ft | 378 kts | 44° |
| 2026-04-28 23:16 | 0.43379 | -78.17168 | 20168 ft | 380 kts | 44° |
| 2026-04-28 23:16 | 0.45318 | -78.15366 | 20438 ft | 382 kts | 44° |
| 2026-04-28 23:16 | 0.47272 | -78.13555 | 20731 ft | 384 kts | 44° |
| 2026-04-28 23:17 | 0.49244 | -78.11751 | 21033 ft | 385 kts | 43° |
| 2026-04-28 23:17 | 0.51304 | -78.10019 | 21306 ft | 388 kts | 38° |
| 2026-04-28 23:17 | 0.53490 | -78.08428 | 21560 ft | 390 kts | 37° |
| 2026-04-28 23:17 | 0.55678 | -78.06816 | 21836 ft | 392 kts | 38° |
| 2026-04-28 23:18 | 0.57868 | -78.05176 | 22112 ft | 393 kts | 38° |
| 2026-04-28 23:18 | 0.60062 | -78.03539 | 22329 ft | 395 kts | 38° |
| 2026-04-28 23:18 | 0.62271 | -78.01899 | 22599 ft | 396 kts | 38° |
| 2026-04-28 23:18 | 0.64459 | -78.00270 | 22803 ft | 398 kts | 38° |
| 2026-04-28 23:19 | 0.66684 | -77.98613 | 23091 ft | 399 kts | 38° |
| 2026-04-28 23:19 | 0.68919 | -77.96947 | 23295 ft | 402 kts | 38° |
| 2026-04-28 23:19 | 0.71165 | -77.95278 | 23559 ft | 402 kts | 38° |
| 2026-04-28 23:19 | 0.73408 | -77.93604 | 23713 ft | 405 kts | 39° |
| 2026-04-28 23:20 | 0.75666 | -77.91924 | 23884 ft | 406 kts | 38° |
| 2026-04-28 23:20 | 0.77935 | -77.90232 | 24018 ft | 408 kts | 38° |
| 2026-04-28 23:20 | 0.80214 | -77.88536 | 24224 ft | 408 kts | 38° |
| 2026-04-28 23:20 | 0.82409 | -77.86729 | 24373 ft | 409 kts | 43° |
| 2026-04-28 23:21 | 0.84510 | -77.84816 | 24560 ft | 410 kts | 44° |
| 2026-04-28 23:21 | 0.86641 | -77.82913 | 24690 ft | 412 kts | 43° |
| 2026-04-28 23:21 | 0.88792 | -77.81014 | 25081 ft | 413 kts | 43° |
| 2026-04-28 23:21 | 0.90942 | -77.79102 | 25231 ft | 414 kts | 43° |
| 2026-04-28 23:22 | 0.93098 | -77.77182 | 25411 ft | 415 kts | 43° |
| 2026-04-28 23:22 | 0.95260 | -77.75260 | 25531 ft | 417 kts | 43° |
| 2026-04-28 23:22 | 0.97431 | -77.73333 | 25672 ft | 418 kts | 43° |
| 2026-04-28 23:22 | 0.99600 | -77.71404 | 25781 ft | 419 kts | 43° |
| 2026-04-28 23:23 | 1.01782 | -77.69465 | 25911 ft | 420 kts | 43° |
| 2026-04-28 23:23 | 1.03968 | -77.67521 | 25998 ft | 421 kts | 43° |
| 2026-04-28 23:23 | 1.06158 | -77.65581 | 26111 ft | 422 kts | 43° |
| 2026-04-28 23:23 | 1.08354 | -77.63626 | 26203 ft | 423 kts | 43° |
| 2026-04-28 23:24 | 1.10555 | -77.61666 | 26317 ft | 424 kts | 43° |
| 2026-04-28 23:24 | 1.12763 | -77.59703 | 26386 ft | 426 kts | 43° |
| 2026-04-28 23:24 | 1.14950 | -77.57764 | 26532 ft | 426 kts | 43° |
| 2026-04-28 23:24 | 1.17190 | -77.55774 | 26628 ft | 427 kts | 43° |
| 2026-04-28 23:25 | 1.19387 | -77.53819 | 26715 ft | 428 kts | 43° |
| 2026-04-28 23:25 | 1.21614 | -77.51839 | 26847 ft | 429 kts | 43° |
| 2026-04-28 23:25 | 1.23849 | -77.49856 | 26971 ft | 430 kts | 42° |
| 2026-04-28 23:25 | 1.26079 | -77.47870 | 27088 ft | 431 kts | 43° |
| 2026-04-28 23:26 | 1.28319 | -77.45877 | 27192 ft | 431 kts | 43° |
| 2026-04-28 23:26 | 1.30567 | -77.43883 | 27287 ft | 432 kts | 43° |
| 2026-04-28 23:26 | 1.32814 | -77.41890 | 27385 ft | 433 kts | 43° |
| 2026-04-28 23:26 | 1.35065 | -77.39881 | 27491 ft | 434 kts | 43° |
| 2026-04-28 23:27 | 1.37324 | -77.37873 | 27601 ft | 435 kts | 43° |
| 2026-04-28 23:27 | 1.39588 | -77.35862 | 27709 ft | 436 kts | 43° |
| 2026-04-28 23:27 | 1.41857 | -77.33846 | 27732 ft | 437 kts | 43° |
| 2026-04-28 23:27 | 1.44128 | -77.31826 | 27833 ft | 437 kts | 43° |
| 2026-04-28 23:28 | 1.46405 | -77.29803 | 27924 ft | 438 kts | 43° |
| 2026-04-28 23:28 | 1.48678 | -77.27781 | 28017 ft | 439 kts | 43° |
| 2026-04-28 23:28 | 1.53257 | -77.23709 | 28135 ft | 441 kts | 43° |
| 2026-04-28 23:29 | 1.57840 | -77.19631 | 28264 ft | 442 kts | 43° |
| 2026-04-28 23:29 | 1.62451 | -77.15540 | 28361 ft | 444 kts | 43° |
| 2026-04-28 23:30 | 1.67086 | -77.11411 | 28352 ft | 448 kts | 43° |
| 2026-04-28 23:30 | 1.71757 | -77.07262 | 28393 ft | 451 kts | 43° |
| 2026-04-28 23:31 | 1.76449 | -77.03082 | 28393 ft | 453 kts | 42° |
| 2026-04-28 23:31 | 1.81165 | -76.98894 | 28387 ft | 455 kts | 43° |
| 2026-04-28 23:32 | 1.85893 | -76.94684 | 28403 ft | 456 kts | 43° |
| 2026-04-28 23:32 | 1.90604 | -76.90495 | 28441 ft | 457 kts | 43° |
| 2026-04-28 23:33 | 1.95367 | -76.86255 | 28444 ft | 458 kts | 43° |
| 2026-04-28 23:33 | 2.00130 | -76.82016 | 28464 ft | 459 kts | 43° |
| 2026-04-28 23:34 | 2.04904 | -76.77769 | 28507 ft | 459 kts | 43° |
| 2026-04-28 23:34 | 2.09683 | -76.73517 | 28491 ft | 459 kts | 43° |
| 2026-04-28 23:35 | 2.14450 | -76.69273 | 28492 ft | 459 kts | 43° |
| 2026-04-28 23:35 | 2.19230 | -76.65021 | 28493 ft | 460 kts | 43° |
| 2026-04-28 23:36 | 2.23205 | -76.61483 | 28513 ft | 460 kts | 43° |
| 2026-04-28 23:36 | 2.28780 | -76.56517 | 28507 ft | 459 kts | 43° |
| 2026-04-28 23:37 | 2.32759 | -76.52978 | 28508 ft | 460 kts | 42° |
| 2026-04-28 23:37 | 2.37536 | -76.48722 | 28524 ft | 460 kts | 43° |
| 2026-04-28 23:38 | 2.42317 | -76.44465 | 28522 ft | 459 kts | 43° |
| 2026-04-28 23:38 | 2.47090 | -76.40215 | 28545 ft | 459 kts | 43° |
| 2026-04-28 23:39 | 2.51866 | -76.35961 | 28573 ft | 460 kts | 42° |
| 2026-04-28 23:39 | 2.56637 | -76.31712 | 28589 ft | 460 kts | 43° |
| 2026-04-28 23:40 | 2.61417 | -76.27453 | 28600 ft | 460 kts | 43° |
| 2026-04-28 23:40 | 2.66201 | -76.23194 | 28603 ft | 461 kts | 42° |
| 2026-04-28 23:41 | 2.70995 | -76.18920 | 28606 ft | 462 kts | 43° |
| 2026-04-28 23:41 | 2.75782 | -76.14656 | 29015 ft | 453 kts | 42° |
| 2026-04-28 23:42 | 2.78063 | -76.12621 | 29607 ft | 440 kts | 43° |
| 2026-04-28 23:42 | 2.80339 | -76.10594 | 29890 ft | 437 kts | 42° |
| 2026-04-28 23:42 | 2.84888 | -76.06538 | 30090 ft | 439 kts | 42° |
| 2026-04-28 23:43 | 2.89459 | -76.02465 | 30262 ft | 440 kts | 43° |
| 2026-04-28 23:43 | 2.94045 | -75.98376 | 30422 ft | 442 kts | 42° |
| 2026-04-28 23:44 | 2.98643 | -75.94277 | 30537 ft | 445 kts | 42° |
| 2026-04-28 23:44 | 3.03271 | -75.90150 | 30680 ft | 446 kts | 42° |
| 2026-04-28 23:45 | 3.07909 | -75.86015 | 30823 ft | 447 kts | 43° |
| 2026-04-28 23:45 | 3.12554 | -75.81870 | 30972 ft | 448 kts | 42° |
| 2026-04-28 23:46 | 3.17205 | -75.77723 | 31051 ft | 449 kts | 42° |
| 2026-04-28 23:46 | 3.21843 | -75.73586 | 31136 ft | 450 kts | 42° |
| 2026-04-28 23:47 | 3.26514 | -75.69415 | 31275 ft | 451 kts | 42° |
| 2026-04-28 23:47 | 3.31201 | -75.65235 | 31401 ft | 452 kts | 42° |
| 2026-04-28 23:48 | 3.35895 | -75.61045 | 31471 ft | 452 kts | 42° |
| 2026-04-28 23:48 | 3.40596 | -75.56848 | 31589 ft | 452 kts | 42° |
| 2026-04-28 23:49 | 3.45304 | -75.52645 | 31697 ft | 453 kts | 42° |
| 2026-04-28 23:49 | 3.50020 | -75.48434 | 31758 ft | 454 kts | 42° |
| 2026-04-28 23:50 | 3.54712 | -75.44245 | 31861 ft | 455 kts | 42° |
| 2026-04-28 23:50 | 3.59437 | -75.40024 | 31996 ft | 455 kts | 42° |
| 2026-04-28 23:51 | 3.64155 | -75.35811 | 32091 ft | 455 kts | 42° |
| 2026-04-28 23:51 | 3.68886 | -75.31584 | 32156 ft | 456 kts | 42° |
| 2026-04-28 23:52 | 3.73637 | -75.27339 | 32185 ft | 458 kts | 42° |
| 2026-04-28 23:52 | 3.78392 | -75.23090 | 32260 ft | 459 kts | 42° |
| 2026-04-28 23:53 | 3.83158 | -75.18829 | 32352 ft | 459 kts | 42° |
| 2026-04-28 23:53 | 3.87925 | -75.14569 | 32428 ft | 460 kts | 42° |
| 2026-04-28 23:54 | 3.92703 | -75.10297 | 32503 ft | 460 kts | 42° |
| 2026-04-28 23:54 | 3.97486 | -75.06020 | 32594 ft | 461 kts | 42° |
| 2026-04-28 23:55 | 4.02264 | -75.01748 | 32643 ft | 461 kts | 42° |
| 2026-04-28 23:55 | 4.07053 | -74.97460 | 32651 ft | 462 kts | 42° |
| 2026-04-28 23:56 | 4.11826 | -74.93193 | 32671 ft | 463 kts | 42° |
| 2026-04-28 23:56 | 4.16628 | -74.88874 | 32730 ft | 464 kts | 44° |
| 2026-04-28 23:57 | 4.20954 | -74.84094 | 32788 ft | 464 kts | 53° |
| 2026-04-28 23:57 | 4.22796 | -74.81443 | 32580 ft | 463 kts | 56° |
| 2026-04-28 23:57 | 4.24628 | -74.78782 | 32595 ft | 464 kts | 56° |
| 2026-04-28 23:58 | 4.28317 | -74.73472 | 32657 ft | 464 kts | 56° |
| 2026-04-28 23:58 | 4.32004 | -74.68152 | 32735 ft | 465 kts | 56° |
| 2026-04-28 23:59 | 4.35695 | -74.62827 | 32871 ft | 465 kts | 56° |
| 2026-04-28 23:59 | 4.39366 | -74.57532 | 32985 ft | 466 kts | 56° |
| 2026-04-29 00:00 | 4.41215 | -74.54865 | 33148 ft | 466 kts | 56° |
| 2026-04-29 00:00 | 4.43067 | -74.52193 | 33149 ft | 467 kts | 56° |
| 2026-04-29 00:00 | 4.46780 | -74.46833 | 33226 ft | 469 kts | 56° |
| 2026-04-29 00:01 | 4.50495 | -74.41471 | 33301 ft | 469 kts | 56° |
| 2026-04-29 00:01 | 4.54218 | -74.36097 | 33389 ft | 469 kts | 56° |
| 2026-04-29 00:02 | 4.56078 | -74.33411 | 33506 ft | 468 kts | 56° |
| 2026-04-29 00:02 | 4.57938 | -74.30728 | 33539 ft | 468 kts | 55° |
| 2026-04-29 00:02 | 4.60073 | -74.28262 | 33554 ft | 469 kts | 44° |
| 2026-04-29 00:02 | 4.62475 | -74.26045 | 33575 ft | 469 kts | 41° |
| 2026-04-29 00:03 | 4.67745 | -74.22178 | 33624 ft | 470 kts | 34° |
| 2026-04-29 00:03 | 4.73097 | -74.18479 | 33650 ft | 470 kts | 34° |
| 2026-04-29 00:04 | 4.78495 | -74.14758 | 33674 ft | 471 kts | 34° |
| 2026-04-29 00:04 | 4.83905 | -74.11025 | 33673 ft | 472 kts | 34° |
| 2026-04-29 00:05 | 4.89318 | -74.07289 | 33716 ft | 473 kts | 34° |
| 2026-04-29 00:05 | 4.94743 | -74.03544 | 33746 ft | 473 kts | 34° |
| 2026-04-29 00:06 | 5.00192 | -73.99845 | 33758 ft | 474 kts | 32° |
| 2026-04-29 00:06 | 5.05968 | -73.96661 | 33767 ft | 474 kts | 24° |
| 2026-04-29 00:07 | 5.11929 | -73.93827 | 33808 ft | 475 kts | 25° |
| 2026-04-29 00:07 | 5.17862 | -73.90992 | 33809 ft | 476 kts | 25° |
| 2026-04-29 00:08 | 5.23841 | -73.88134 | 33847 ft | 476 kts | 25° |
| 2026-04-29 00:08 | 5.29815 | -73.85277 | 33843 ft | 476 kts | 25° |
| 2026-04-29 00:09 | 5.35802 | -73.82413 | 33869 ft | 477 kts | 25° |
| 2026-04-29 00:09 | 5.41793 | -73.79546 | 33852 ft | 477 kts | 25° |
| 2026-04-29 00:10 | 5.47784 | -73.76680 | 33909 ft | 477 kts | 25° |
| 2026-04-29 00:10 | 5.50765 | -73.75253 | 34046 ft | 473 kts | 25° |
| 2026-04-29 00:10 | 5.53746 | -73.73827 | 34053 ft | 473 kts | 25° |
| 2026-04-29 00:11 | 5.59682 | -73.70983 | 34029 ft | 473 kts | 25° |
| 2026-04-29 00:12 | 5.68611 | -73.66708 | 34064 ft | 474 kts | 25° |
| 2026-04-29 00:12 | 5.74568 | -73.63855 | 34066 ft | 475 kts | 25° |
| 2026-04-29 00:13 | 5.80503 | -73.61010 | 34061 ft | 476 kts | 25° |
| 2026-04-29 00:13 | 5.86489 | -73.58140 | 34056 ft | 476 kts | 25° |
| 2026-04-29 00:14 | 5.92457 | -73.55281 | 34065 ft | 476 kts | 25° |
| 2026-04-29 00:14 | 5.98435 | -73.52415 | 34077 ft | 476 kts | 25° |
| 2026-04-29 00:15 | 6.04415 | -73.49546 | 34061 ft | 476 kts | 25° |
| 2026-04-29 00:15 | 6.10399 | -73.46676 | 34075 ft | 476 kts | 25° |
| 2026-04-29 00:16 | 6.16377 | -73.43808 | 34058 ft | 477 kts | 25° |
| 2026-04-29 00:16 | 6.22360 | -73.40933 | 34108 ft | 475 kts | 24° |
| 2026-04-29 00:17 | 6.28330 | -73.38075 | 34071 ft | 475 kts | 24° |
| 2026-04-29 00:17 | 6.34289 | -73.35206 | 34088 ft | 476 kts | 24° |
| 2026-04-29 00:18 | 6.40264 | -73.32338 | 34113 ft | 476 kts | 25° |
| 2026-04-29 00:18 | 6.46200 | -73.29487 | 34116 ft | 475 kts | 24° |
| 2026-04-29 00:19 | 6.52150 | -73.26627 | 34147 ft | 474 kts | 24° |
| 2026-04-29 00:19 | 6.58109 | -73.23761 | 34140 ft | 475 kts | 24° |
| 2026-04-29 00:20 | 6.64077 | -73.20893 | 34169 ft | 475 kts | 24° |
| 2026-04-29 00:20 | 6.70052 | -73.18019 | 34150 ft | 476 kts | 24° |
| 2026-04-29 00:21 | 6.76032 | -73.15142 | 34177 ft | 476 kts | 24° |
| 2026-04-29 00:21 | 6.82007 | -73.12266 | 34193 ft | 476 kts | 24° |
| 2026-04-29 00:22 | 6.88009 | -73.09423 | 34196 ft | 477 kts | 25° |
| 2026-04-29 00:22 | 6.93810 | -73.06256 | 34249 ft | 477 kts | 27° |
| 2026-04-29 00:23 | 6.99666 | -73.03091 | 34268 ft | 478 kts | 27° |
| 2026-04-29 00:23 | 7.05520 | -72.99917 | 34291 ft | 478 kts | 27° |
| 2026-04-29 00:24 | 7.11378 | -72.96743 | 34311 ft | 478 kts | 27° |
| 2026-04-29 00:24 | 7.17231 | -72.93568 | 34402 ft | 476 kts | 26° |
| 2026-04-29 00:25 | 7.23066 | -72.90406 | 34420 ft | 476 kts | 26° |
| 2026-04-29 00:25 | 7.28897 | -72.87242 | 34439 ft | 476 kts | 26° |
| 2026-04-29 00:26 | 7.34739 | -72.84077 | 34458 ft | 477 kts | 26° |
| 2026-04-29 00:26 | 7.40584 | -72.80904 | 34470 ft | 477 kts | 26° |
| 2026-04-29 00:27 | 7.46396 | -72.77749 | 34463 ft | 477 kts | 26° |
| 2026-04-29 00:27 | 7.52248 | -72.74572 | 34482 ft | 478 kts | 26° |
| 2026-04-29 00:28 | 7.58102 | -72.71392 | 34469 ft | 478 kts | 26° |
| 2026-04-29 00:28 | 7.63009 | -72.68723 | 34492 ft | 478 kts | 26° |
| 2026-04-29 00:29 | 7.68865 | -72.65544 | 34468 ft | 479 kts | 26° |
| 2026-04-29 00:29 | 7.74699 | -72.62372 | 34463 ft | 479 kts | 26° |
| 2026-04-29 00:30 | 7.80559 | -72.59185 | 34444 ft | 479 kts | 26° |
| 2026-04-29 00:30 | 7.86432 | -72.55990 | 34427 ft | 479 kts | 26° |
| 2026-04-29 00:31 | 7.92307 | -72.52793 | 34433 ft | 480 kts | 26° |
| 2026-04-29 00:31 | 7.98185 | -72.49593 | 34444 ft | 480 kts | 26° |
| 2026-04-29 00:32 | 8.04056 | -72.46397 | 34462 ft | 480 kts | 26° |
| 2026-04-29 00:32 | 8.09936 | -72.43194 | 34478 ft | 480 kts | 26° |
| 2026-04-29 00:33 | 8.15815 | -72.39990 | 34467 ft | 480 kts | 26° |
| 2026-04-29 00:33 | 8.21696 | -72.36788 | 34477 ft | 480 kts | 27° |
| 2026-04-29 00:34 | 8.27500 | -72.33529 | 34456 ft | 480 kts | 26° |
| 2026-04-29 00:34 | 8.33353 | -72.30262 | 34458 ft | 480 kts | 27° |
| 2026-04-29 00:35 | 8.39190 | -72.26998 | 34439 ft | 480 kts | 27° |
| 2026-04-29 00:35 | 8.45039 | -72.23729 | 34463 ft | 480 kts | 27° |
| 2026-04-29 00:36 | 8.50888 | -72.20458 | 34457 ft | 480 kts | 27° |
| 2026-04-29 00:36 | 8.56736 | -72.17186 | 34437 ft | 480 kts | 27° |
| 2026-04-29 00:37 | 8.62582 | -72.13916 | 34441 ft | 480 kts | 27° |
| 2026-04-29 00:37 | 8.68432 | -72.10641 | 34428 ft | 480 kts | 27° |
| 2026-04-29 00:38 | 8.74276 | -72.07368 | 34432 ft | 481 kts | 27° |
| 2026-04-29 00:38 | 8.80131 | -72.04088 | 34424 ft | 481 kts | 27° |
| 2026-04-29 00:39 | 8.85989 | -72.00805 | 34421 ft | 481 kts | 27° |
| 2026-04-29 00:39 | 8.91847 | -71.97521 | 34425 ft | 481 kts | 27° |
| 2026-04-29 00:40 | 8.97553 | -71.94052 | 34428 ft | 483 kts | 33° |
| 2026-04-29 00:40 | 9.02786 | -71.89788 | 34430 ft | 484 kts | 41° |
| 2026-04-29 00:41 | 9.07801 | -71.85249 | 34434 ft | 484 kts | 40° |
| 2026-04-29 00:41 | 9.12829 | -71.80700 | 34437 ft | 485 kts | 40° |
| 2026-04-29 00:42 | 9.17855 | -71.76155 | 34441 ft | 485 kts | 40° |
| 2026-04-29 00:42 | 9.22897 | -71.71595 | 34440 ft | 485 kts | 40° |
| 2026-04-29 00:43 | 9.27928 | -71.67042 | 34433 ft | 485 kts | 40° |
| 2026-04-29 00:43 | 9.32967 | -71.62481 | 34433 ft | 486 kts | 40° |
| 2026-04-29 00:44 | 9.38001 | -71.57921 | 34440 ft | 486 kts | 40° |
| 2026-04-29 00:44 | 9.43045 | -71.53352 | 34439 ft | 486 kts | 40° |
| 2026-04-29 00:45 | 9.48089 | -71.48779 | 34441 ft | 486 kts | 40° |
| 2026-04-29 00:45 | 9.53108 | -71.44228 | 34437 ft | 486 kts | 40° |
| 2026-04-29 00:46 | 9.58147 | -71.39657 | 34439 ft | 487 kts | 40° |
| 2026-04-29 00:46 | 9.63200 | -71.35072 | 34440 ft | 487 kts | 40° |
| 2026-04-29 00:47 | 9.68240 | -71.30496 | 34442 ft | 487 kts | 40° |
| 2026-04-29 00:47 | 9.73290 | -71.25911 | 34445 ft | 487 kts | 40° |
| 2026-04-29 00:48 | 9.78343 | -71.21319 | 34437 ft | 488 kts | 40° |
| 2026-04-29 00:48 | 9.83365 | -71.16753 | 34439 ft | 488 kts | 40° |
| 2026-04-29 00:49 | 9.88458 | -71.12122 | 34445 ft | 488 kts | 40° |
| 2026-04-29 00:49 | 9.93484 | -71.07548 | 34447 ft | 488 kts | 40° |
| 2026-04-29 00:50 | 9.98545 | -71.02942 | 34445 ft | 489 kts | 40° |
| 2026-04-29 00:50 | 10.03606 | -70.98334 | 34480 ft | 488 kts | 40° |
| 2026-04-29 00:51 | 10.08663 | -70.93726 | 34487 ft | 488 kts | 40° |
| 2026-04-29 00:51 | 10.13714 | -70.89122 | 34502 ft | 488 kts | 40° |
| 2026-04-29 00:52 | 10.18772 | -70.84511 | 34526 ft | 488 kts | 40° |
| 2026-04-29 00:52 | 10.23823 | -70.79903 | 34535 ft | 489 kts | 40° |
| 2026-04-29 00:53 | 10.28890 | -70.75279 | 34541 ft | 489 kts | 40° |
| 2026-04-29 00:53 | 10.33944 | -70.70665 | 34559 ft | 489 kts | 40° |
| 2026-04-29 00:54 | 10.38971 | -70.66072 | 34578 ft | 489 kts | 40° |
| 2026-04-29 00:54 | 10.44031 | -70.61448 | 34571 ft | 489 kts | 40° |
| 2026-04-29 00:55 | 10.49100 | -70.56814 | 34588 ft | 489 kts | 40° |
| 2026-04-29 00:55 | 10.54155 | -70.52190 | 34597 ft | 489 kts | 40° |
| 2026-04-29 00:56 | 10.59215 | -70.47560 | 34597 ft | 489 kts | 40° |
| 2026-04-29 00:56 | 10.64272 | -70.42930 | 34495 ft | 490 kts | 40° |
| 2026-04-29 00:56 | 10.66798 | -70.40616 | 34085 ft | 487 kts | 40° |
| 2026-04-29 00:57 | 10.69302 | -70.38323 | 33512 ft | 481 kts | 41° |
| 2026-04-29 00:57 | 10.71766 | -70.36064 | 32826 ft | 474 kts | 41° |
| 2026-04-29 00:57 | 10.74200 | -70.33835 | 32094 ft | 467 kts | 41° |
| 2026-04-29 00:57 | 10.76597 | -70.31636 | 31330 ft | 460 kts | 41° |
| 2026-04-29 00:58 | 10.78954 | -70.29475 | 30536 ft | 454 kts | 41° |
| 2026-04-29 00:58 | 10.81291 | -70.27337 | 29709 ft | 449 kts | 42° |
| 2026-04-29 00:58 | 10.83592 | -70.25217 | 28847 ft | 443 kts | 42° |
| 2026-04-29 00:58 | 10.85878 | -70.23124 | 28398 ft | 441 kts | 42° |
| 2026-04-29 00:59 | 10.88142 | -70.21051 | 28190 ft | 436 kts | 42° |
| 2026-04-29 00:59 | 10.92625 | -70.16928 | 28082 ft | 433 kts | 42° |
| 2026-04-29 01:00 | 10.97111 | -70.12810 | 28045 ft | 436 kts | 42° |
| 2026-04-29 01:00 | 11.01580 | -70.08703 | 28035 ft | 436 kts | 42° |
| 2026-04-29 01:01 | 11.06115 | -70.04537 | 28038 ft | 436 kts | 42° |
| 2026-04-29 01:01 | 11.10589 | -70.00422 | 28034 ft | 436 kts | 42° |
| 2026-04-29 01:02 | 11.15087 | -69.96284 | 28036 ft | 436 kts | 42° |
| 2026-04-29 01:02 | 11.19592 | -69.92138 | 28038 ft | 436 kts | 42° |
| 2026-04-29 01:03 | 11.24100 | -69.87987 | 28034 ft | 436 kts | 42° |
| 2026-04-29 01:03 | 11.28605 | -69.83838 | 28034 ft | 439 kts | 43° |
| 2026-04-29 01:04 | 11.33132 | -69.79662 | 28034 ft | 438 kts | 42° |
| 2026-04-29 01:04 | 11.37661 | -69.75490 | 28043 ft | 440 kts | 43° |
| 2026-04-29 01:05 | 11.42197 | -69.71303 | 28048 ft | 440 kts | 42° |
| 2026-04-29 01:05 | 11.46728 | -69.67119 | 28042 ft | 440 kts | 43° |
| 2026-04-29 01:06 | 11.51266 | -69.62940 | 28048 ft | 439 kts | 43° |
| 2026-04-29 01:06 | 11.55787 | -69.58755 | 28045 ft | 439 kts | 42° |
| 2026-04-29 01:07 | 11.60282 | -69.54603 | 28040 ft | 438 kts | 43° |
| 2026-04-29 01:07 | 11.64775 | -69.50448 | 27781 ft | 431 kts | 42° |
| 2026-04-29 01:07 | 11.66999 | -69.48388 | 27091 ft | 430 kts | 42° |
| 2026-04-29 01:08 | 11.69206 | -69.46359 | 26298 ft | 427 kts | 42° |
| 2026-04-29 01:08 | 11.71386 | -69.44339 | 25637 ft | 418 kts | 43° |
| 2026-04-29 01:08 | 11.73528 | -69.42357 | 24834 ft | 413 kts | 43° |
| 2026-04-29 01:08 | 11.75634 | -69.40404 | 24134 ft | 405 kts | 44° |
| 2026-04-29 01:09 | 11.77713 | -69.38478 | 23374 ft | 399 kts | 43° |
| 2026-04-29 01:09 | 11.79751 | -69.36589 | 22539 ft | 392 kts | 43° |
| 2026-04-29 01:09 | 11.81763 | -69.34728 | 21720 ft | 386 kts | 43° |
| 2026-04-29 01:09 | 11.83729 | -69.32906 | 20890 ft | 380 kts | 44° |
| 2026-04-29 01:10 | 11.85676 | -69.31099 | 20105 ft | 375 kts | 44° |
| 2026-04-29 01:10 | 11.87594 | -69.29324 | 19319 ft | 369 kts | 44° |
| 2026-04-29 01:10 | 11.89653 | -69.27782 | 18541 ft | 367 kts | 27° |
| 2026-04-29 01:10 | 11.92062 | -69.26957 | 17759 ft | 363 kts | 15° |
| 2026-04-29 01:11 | 11.94521 | -69.26393 | 16897 ft | 359 kts | 13° |
| 2026-04-29 01:11 | 11.96946 | -69.25892 | 16054 ft | 354 kts | 12° |
| 2026-04-29 01:11 | 11.99349 | -69.25412 | 15258 ft | 349 kts | 14° |
| 2026-04-29 01:11 | 12.01708 | -69.24918 | 14512 ft | 342 kts | 16° |
| 2026-04-29 01:12 | 12.03981 | -69.24253 | 13697 ft | 339 kts | 19° |
| 2026-04-29 01:12 | 12.06174 | -69.23517 | 12866 ft | 332 kts | 21° |
| 2026-04-29 01:12 | 12.08387 | -69.22792 | 12022 ft | 328 kts | 22° |
| 2026-04-29 01:12 | 12.10353 | -69.21720 | 11202 ft | 317 kts | 40° |
| 2026-04-29 01:13 | 12.12053 | -69.20317 | 10751 ft | 322 kts | 43° |
| 2026-04-29 01:13 | 12.13905 | -69.19034 | 10615 ft | 322 kts | 33° |
| 2026-04-29 01:13 | 12.15927 | -69.18055 | 10082 ft | 321 kts | 24° |
| 2026-04-29 01:13 | 12.18056 | -69.17407 | 9295 ft | 320 kts | 15° |
| 2026-04-29 01:14 | 12.20314 | -69.17138 | 8336 ft | 335 kts | 4° |
| 2026-04-29 01:14 | 12.22655 | -69.17411 | 6980 ft | 346 kts | 348° |
| 2026-04-29 01:14 | 12.24847 | -69.18444 | 6187 ft | 344 kts | 321° |
| 2026-04-29 01:14 | 12.25808 | -69.19678 | 5959 ft | 330 kts | 298° |
| 2026-04-29 01:15 | 12.26216 | -69.22640 | 4808 ft | 321 kts | 253° |
| 2026-04-29 01:15 | 12.25293 | -69.24472 | 5119 ft | 269 kts | 226° |
| 2026-04-29 01:15 | 12.24391 | -69.25339 | 4819 ft | 260 kts | 210° |
| 2026-04-29 01:15 | 12.22781 | -69.25960 | 4122 ft | 251 kts | 177° |
| 2026-04-29 01:16 | 12.21185 | -69.25451 | 3385 ft | 236 kts | 132° |
| 2026-04-29 01:16 | 12.20624 | -69.24087 | 3302 ft | 201 kts | 93° |
| 2026-04-29 01:16 | 12.20763 | -69.22705 | 2963 ft | 191 kts | 79° |
| 2026-04-29 01:16 | 12.21065 | -69.21448 | 2857 ft | 169 kts | 77° |
| 2026-04-29 01:17 | 12.21426 | -69.20253 | 2963 ft | 185 kts | 77° |
| 2026-04-29 01:17 | 12.21802 | -69.18990 | 3261 ft | 193 kts | 73° |
| 2026-04-29 01:17 | 12.22364 | -69.17724 | 3263 ft | 194 kts | 70° |
| 2026-04-29 01:17 | 12.22833 | -69.16483 | 3451 ft | 183 kts | 76° |
| 2026-04-29 01:18 | 12.23115 | -69.15183 | 3550 ft | 191 kts | 88° |
| 2026-04-29 01:18 | 12.23016 | -69.12555 | 3962 ft | 198 kts | 98° |
| 2026-04-29 01:18 | 12.22725 | -69.11180 | 3543 ft | 190 kts | 105° |
| 2026-04-29 01:19 | 12.22310 | -69.09987 | 3465 ft | 170 kts | 109° |
| 2026-04-29 01:19 | 12.21890 | -69.08842 | 3065 ft | 170 kts | 108° |
| 2026-04-29 01:19 | 12.21534 | -69.07783 | 2811 ft | 143 kts | 105° |
| 2026-04-29 01:19 | 12.21299 | -69.06880 | 2455 ft | 124 kts | 102° |
| 2026-04-29 01:20 | 12.21091 | -69.06038 | 2274 ft | 131 kts | 101° |
| 2026-04-29 01:20 | 12.20870 | -69.05148 | 1890 ft | 134 kts | 101° |
| 2026-04-29 01:20 | 12.20648 | -69.04254 | 1636 ft | 129 kts | 99° |
| 2026-04-29 01:20 | 12.20484 | -69.03352 | 1546 ft | 129 kts | 98° |
| 2026-04-29 01:21 | 12.20293 | -69.02450 | 1383 ft | 131 kts | 100° |
| 2026-04-29 01:21 | 12.20083 | -69.01547 | 1135 ft | 128 kts | 102° |
| 2026-04-29 01:21 | 12.19903 | -69.00674 | 922 ft | 126 kts | 98° |
| 2026-04-29 01:21 | 12.19721 | -68.99758 | 716 ft | 135 kts | 101° |
| 2026-04-29 01:22 | 12.19497 | -68.98825 | 464 ft | 134 kts | 99° |
| 2026-04-29 01:22 | 12.19303 | -68.97919 | 257 ft | 126 kts | 98° |
| 2026-04-29 01:22 | 12.19127 | -68.97053 | 68 ft | 125 kts | 101° |
| 2026-04-29 01:22 | 12.18968 | -68.96326 | 36 ft | 80 kts | 100° |
| 2026-04-29 01:23 | 12.18896 | -68.95960 | 36 ft | 23 kts | 101° |
| 2026-04-29 01:23 | 12.18887 | -68.95916 | 35 ft | 1 kts | 102° |
| 2026-04-29 01:23 | 12.18873 | -68.95854 | 35 ft | 17 kts | 103° |
| 2026-04-29 01:23 | 12.18837 | -68.95686 | 34 ft | 32 kts | 101° |
| 2026-04-29 01:24 | 12.18782 | -68.95447 | 32 ft | 32 kts | 120° |
| 2026-04-29 01:24 | 12.18633 | -68.95441 | 35 ft | 26 kts | 233° |
| 2026-04-29 01:24 | 12.18597 | -68.95554 | 35 ft | 8 kts | 186° |